createdAt,value
2023-03-12T00:00:22.888Z,1005.09
2023-03-12T00:01:22.898Z,1005.12
2023-03-12T00:02:22.959Z,1005.14
2023-03-12T00:03:22.868Z,1005.11
2023-03-12T00:04:22.928Z,1005.07
2023-03-12T00:05:22.880Z,1005.11
2023-03-12T00:06:22.816Z,1005.07
2023-03-12T00:07:22.797Z,1005.09
2023-03-12T00:08:22.785Z,1005.11
2023-03-12T00:09:22.779Z,1005.12
2023-03-12T00:10:22.783Z,1005.09
2023-03-12T00:11:22.754Z,1005.07
2023-03-12T00:12:22.904Z,1005.12
2023-03-12T00:13:22.730Z,1005.09
2023-03-12T00:14:22.721Z,1005.05
2023-03-12T00:15:22.710Z,1005.08
2023-03-12T00:16:22.787Z,1005.02
2023-03-12T00:17:22.723Z,1005.04
2023-03-12T00:18:22.677Z,1005.04
2023-03-12T00:19:22.666Z,1005.02
2023-03-12T00:20:22.703Z,1005.01
2023-03-12T00:21:22.649Z,1005.01
2023-03-12T00:22:22.640Z,1004.94
2023-03-12T00:23:22.631Z,1005.01
2023-03-12T00:24:22.632Z,1005.03
2023-03-12T00:25:22.624Z,1005.07
2023-03-12T00:26:22.598Z,1005.04
2023-03-12T00:27:22.584Z,1004.99
2023-03-12T00:28:22.571Z,1005.07
2023-03-12T00:29:22.566Z,1005.09
2023-03-12T00:30:22.589Z,1005.07
2023-03-12T00:31:22.602Z,1005.06
2023-03-12T00:32:22.601Z,1005.05
2023-03-12T00:33:22.514Z,1005.09
2023-03-12T00:34:22.504Z,1005.12
2023-03-12T00:35:22.527Z,1005.04
2023-03-12T00:36:22.501Z,1005.09
2023-03-12T00:37:22.480Z,1005.12
2023-03-12T00:38:22.466Z,1005.09
2023-03-12T00:39:22.457Z,1005.09
2023-03-12T00:40:22.460Z,1005.11
2023-03-12T00:41:22.430Z,1005.07
2023-03-12T00:42:22.422Z,1005.10
2023-03-12T00:43:22.429Z,1005.07
2023-03-12T00:44:22.395Z,1005.12
2023-03-12T00:45:22.415Z,1005.13
2023-03-12T00:46:22.447Z,1005.13
2023-03-12T00:47:22.361Z,1005.12
2023-03-12T00:48:22.363Z,1005.12
2023-03-12T00:49:22.350Z,1005.15
2023-03-12T00:50:22.355Z,1005.17
2023-03-12T00:51:22.325Z,1005.13
2023-03-12T00:52:22.329Z,1005.17
2023-03-12T00:53:22.304Z,1005.21
2023-03-12T00:54:22.293Z,1005.18
2023-03-12T00:55:22.300Z,1005.15
2023-03-12T00:56:22.274Z,1005.23
2023-03-12T00:57:22.267Z,1005.27
2023-03-12T00:58:22.257Z,1005.24
2023-03-12T00:59:22.239Z,1005.27
2023-03-12T01:00:22.245Z,1005.23
2023-03-12T01:01:22.227Z,1005.31
2023-03-12T01:02:22.254Z,1005.33
2023-03-12T01:03:22.203Z,1005.30
2023-03-12T01:04:22.274Z,1005.28
2023-03-12T01:05:22.191Z,1005.37
2023-03-12T01:06:22.171Z,1005.31
2023-03-12T01:07:22.150Z,1005.36
2023-03-12T01:08:22.176Z,1005.32
2023-03-12T01:09:22.136Z,1005.34
2023-03-12T01:10:22.152Z,1005.41
2023-03-12T01:11:22.120Z,1005.33
2023-03-12T01:12:22.123Z,1005.38
2023-03-12T01:13:22.097Z,1005.31
2023-03-12T01:14:22.080Z,1005.37
2023-03-12T01:15:22.087Z,1005.39
2023-03-12T01:16:22.166Z,1005.45
2023-03-12T01:17:22.051Z,1005.42
2023-03-12T01:18:22.049Z,1005.46
2023-03-12T01:19:22.029Z,1005.49
2023-03-12T01:20:22.033Z,1005.42
2023-03-12T01:21:22.016Z,1005.42
2023-03-12T01:22:22.003Z,1005.43
2023-03-12T01:23:21.991Z,1005.45
2023-03-12T01:24:21.992Z,1005.47
2023-03-12T01:25:21.986Z,1005.42
2023-03-12T01:26:21.969Z,1005.44
2023-03-12T01:27:21.950Z,1005.43
2023-03-12T01:28:21.938Z,1005.46
2023-03-12T01:29:21.925Z,1005.42
2023-03-12T01:30:21.932Z,1005.42
2023-03-12T01:31:21.974Z,1005.39
2023-03-12T01:32:21.898Z,1005.45
2023-03-12T01:33:21.878Z,1005.41
2023-03-12T01:34:21.872Z,1005.37
2023-03-12T01:35:21.912Z,1005.41
2023-03-12T01:36:21.937Z,1005.43
2023-03-12T01:37:21.852Z,1005.43
2023-03-12T01:38:21.824Z,1005.42
2023-03-12T01:39:21.809Z,1005.40
2023-03-12T01:40:21.832Z,1005.41
2023-03-12T01:41:21.796Z,1005.44
2023-03-12T01:42:21.785Z,1005.47
2023-03-12T01:43:21.767Z,1005.49
2023-03-12T01:44:21.760Z,1005.50
2023-03-12T01:45:21.762Z,1005.50
2023-03-12T01:46:21.733Z,1005.51
2023-03-12T01:47:21.725Z,1005.52
2023-03-12T01:48:21.720Z,1005.55
2023-03-12T01:49:21.703Z,1005.54
2023-03-12T01:50:21.721Z,1005.59
2023-03-12T01:51:21.680Z,1005.60
2023-03-12T01:52:21.679Z,1005.59
2023-03-12T01:53:21.661Z,1005.58
2023-03-12T01:54:21.647Z,1005.62
2023-03-12T01:55:21.655Z,1005.56
2023-03-12T01:56:21.652Z,1005.62
2023-03-12T01:57:21.614Z,1005.60
2023-03-12T01:58:21.606Z,1005.66
2023-03-12T01:59:21.604Z,1005.64
2023-03-12T02:00:21.617Z,1005.59
2023-03-12T02:01:21.768Z,1005.63
2023-03-12T02:02:21.594Z,1005.60
2023-03-12T02:03:21.553Z,1005.67
2023-03-12T02:04:21.641Z,1005.69
2023-03-12T02:05:21.537Z,1005.69
2023-03-12T02:06:21.534Z,1005.71
2023-03-12T02:07:21.522Z,1005.69
2023-03-12T02:08:21.495Z,1005.69
2023-03-12T02:09:21.495Z,1005.71
2023-03-12T02:10:21.482Z,1005.70
2023-03-12T02:11:21.490Z,1005.71
2023-03-12T02:12:21.481Z,1005.72
2023-03-12T02:13:21.448Z,1005.67
2023-03-12T02:14:21.448Z,1005.76
2023-03-12T02:15:21.433Z,1005.74
2023-03-12T02:16:21.514Z,1005.76
2023-03-12T02:17:21.411Z,1005.80
2023-03-12T02:18:21.411Z,1005.80
2023-03-12T02:19:21.385Z,1005.87
2023-03-12T02:20:21.381Z,1005.88
2023-03-12T02:21:21.392Z,1005.85
2023-03-12T02:22:21.371Z,1005.87
2023-03-12T02:23:21.349Z,1005.87
2023-03-12T02:24:21.331Z,1005.86
2023-03-12T02:25:21.319Z,1005.86
2023-03-12T02:26:21.313Z,1005.85
2023-03-12T02:27:21.324Z,1005.90
2023-03-12T02:28:21.320Z,1005.90
2023-03-12T02:29:21.284Z,1005.88
2023-03-12T02:30:21.270Z,1005.86
2023-03-12T02:31:21.326Z,1005.88
2023-03-12T02:32:21.316Z,1005.84
2023-03-12T02:33:21.242Z,1005.92
2023-03-12T02:34:21.227Z,1005.92
2023-03-12T02:35:21.229Z,1005.90
2023-03-12T02:36:21.218Z,1005.90
2023-03-12T02:37:21.212Z,1006.00
2023-03-12T02:38:21.202Z,1005.95
2023-03-12T02:39:21.172Z,1005.99
2023-03-12T02:40:21.159Z,1005.95
2023-03-12T02:41:21.174Z,1005.96
2023-03-12T02:42:21.155Z,1005.93
2023-03-12T02:43:21.128Z,1005.96
2023-03-12T02:44:21.135Z,1006.02
2023-03-12T02:45:21.110Z,1006.03
2023-03-12T02:46:21.168Z,1006.09
2023-03-12T02:47:21.110Z,1006.09
2023-03-12T02:48:21.079Z,1006.09
2023-03-12T02:49:21.072Z,1006.11
2023-03-12T02:50:21.058Z,1006.12
2023-03-12T02:51:21.062Z,1006.15
2023-03-12T02:52:21.064Z,1006.12
2023-03-12T02:53:21.020Z,1006.07
2023-03-12T02:54:21.019Z,1006.11
2023-03-12T02:55:21.002Z,1006.15
2023-03-12T02:56:20.995Z,1006.14
2023-03-12T02:57:20.992Z,1006.19
2023-03-12T02:58:20.979Z,1006.17
2023-03-12T02:59:20.961Z,1006.20
2023-03-12T03:00:20.997Z,1006.19
2023-03-12T03:01:20.993Z,1006.21
2023-03-12T03:02:20.933Z,1006.18
2023-03-12T03:03:20.927Z,1006.17
2023-03-12T03:04:21.015Z,1006.24
2023-03-12T03:05:20.905Z,1006.21
2023-03-12T03:06:20.936Z,1006.22
2023-03-12T03:07:20.872Z,1006.23
2023-03-12T03:08:20.870Z,1006.20
2023-03-12T03:09:20.864Z,1006.21
2023-03-12T03:10:20.845Z,1006.25
2023-03-12T03:11:20.852Z,1006.24
2023-03-12T03:12:20.840Z,1006.24
2023-03-12T03:13:20.817Z,1006.26
2023-03-12T03:14:20.822Z,1006.26
2023-03-12T03:15:20.796Z,1006.23
2023-03-12T03:16:20.797Z,1006.25
2023-03-12T03:17:20.803Z,1006.24
2023-03-12T03:18:20.760Z,1006.27
2023-03-12T03:19:20.808Z,1006.25
2023-03-12T03:20:20.741Z,1006.29
2023-03-12T03:21:20.876Z,1006.32
2023-03-12T03:22:20.731Z,1006.37
2023-03-12T03:23:20.709Z,1006.36
2023-03-12T03:24:20.696Z,1006.34
2023-03-12T03:25:20.686Z,1006.38
2023-03-12T03:26:20.728Z,1006.36
2023-03-12T03:27:20.665Z,1006.41
2023-03-12T03:28:20.652Z,1006.38
2023-03-12T03:29:20.669Z,1006.42
2023-03-12T03:30:20.636Z,1006.39
2023-03-12T03:31:20.741Z,1006.42
2023-03-12T03:32:20.731Z,1006.47
2023-03-12T03:33:20.602Z,1006.48
2023-03-12T03:34:20.584Z,1006.45
2023-03-12T03:35:20.579Z,1006.51
2023-03-12T03:36:20.628Z,1006.49
2023-03-12T03:37:20.555Z,1006.50
2023-03-12T03:38:20.545Z,1006.50
2023-03-12T03:39:20.541Z,1006.51
2023-03-12T03:40:20.522Z,1006.48
2023-03-12T03:41:20.551Z,1006.49
2023-03-12T03:42:20.508Z,1006.51
2023-03-12T03:43:20.488Z,1006.51
2023-03-12T03:44:20.479Z,1006.47
2023-03-12T03:45:20.471Z,1006.49
2023-03-12T03:46:20.585Z,1006.49
2023-03-12T03:47:20.462Z,1006.51
2023-03-12T03:48:20.468Z,1006.47
2023-03-12T03:49:20.425Z,1006.55
2023-03-12T03:50:20.416Z,1006.53
2023-03-12T03:51:20.427Z,1006.51
2023-03-12T03:52:20.391Z,1006.52
2023-03-12T03:53:20.390Z,1006.52
2023-03-12T03:54:20.371Z,1006.53
2023-03-12T03:55:20.361Z,1006.47
2023-03-12T03:56:20.364Z,1006.53
2023-03-12T03:57:20.337Z,1006.53
2023-03-12T03:58:20.326Z,1006.55
2023-03-12T03:59:20.358Z,1006.61
2023-03-12T04:00:20.308Z,1006.60
2023-03-12T04:01:20.336Z,1006.61
2023-03-12T04:02:20.332Z,1006.61
2023-03-12T04:03:20.403Z,1006.61
2023-03-12T04:04:20.305Z,1006.64
2023-03-12T04:05:20.265Z,1006.68
2023-03-12T04:06:20.248Z,1006.71
2023-03-12T04:07:20.271Z,1006.68
2023-03-12T04:08:20.225Z,1006.73
2023-03-12T04:09:20.242Z,1006.76
2023-03-12T04:10:20.213Z,1006.77
2023-03-12T04:11:20.223Z,1006.77
2023-03-12T04:12:20.180Z,1006.78
2023-03-12T04:13:20.167Z,1006.77
2023-03-12T04:14:20.159Z,1006.78
2023-03-12T04:15:20.149Z,1006.80
2023-03-12T04:16:20.262Z,1006.82
2023-03-12T04:17:20.135Z,1006.76
2023-03-12T04:18:20.172Z,1006.79
2023-03-12T04:19:20.104Z,1006.76
2023-03-12T04:20:20.134Z,1006.75
2023-03-12T04:21:20.108Z,1006.75
2023-03-12T04:22:20.097Z,1006.82
2023-03-12T04:23:20.069Z,1006.75
2023-03-12T04:24:20.051Z,1006.81
2023-03-12T04:25:20.041Z,1006.87
2023-03-12T04:26:20.044Z,1006.86
2023-03-12T04:27:20.023Z,1006.85
2023-03-12T04:28:20.017Z,1006.84
2023-03-12T04:29:19.994Z,1006.82
2023-03-12T04:30:19.998Z,1006.80
2023-03-12T04:31:20.043Z,1006.82
2023-03-12T04:32:20.040Z,1006.85
2023-03-12T04:33:19.953Z,1006.89
2023-03-12T04:34:19.993Z,1006.85
2023-03-12T04:35:19.929Z,1006.85
2023-03-12T04:36:19.964Z,1006.85
2023-03-12T04:37:19.914Z,1006.87
2023-03-12T04:38:19.901Z,1006.90
2023-03-12T04:39:19.896Z,1006.87
2023-03-12T04:40:19.900Z,1006.91
2023-03-12T04:41:19.893Z,1006.90
2023-03-12T04:42:19.869Z,1006.91
2023-03-12T04:43:19.847Z,1006.91
2023-03-12T04:44:19.856Z,1006.90
2023-03-12T04:45:19.829Z,1006.91
2023-03-12T04:46:19.880Z,1006.92
2023-03-12T04:47:19.817Z,1006.90
2023-03-12T04:48:19.805Z,1006.91
2023-03-12T04:49:19.784Z,1006.95
2023-03-12T04:50:19.784Z,1006.95
2023-03-12T04:51:19.766Z,1006.92
2023-03-12T04:52:19.805Z,1006.94
2023-03-12T04:53:19.788Z,1006.94
2023-03-12T04:54:19.735Z,1006.95
2023-03-12T04:55:19.728Z,1006.95
2023-03-12T04:56:19.722Z,1006.92
2023-03-12T04:57:19.764Z,1006.89
2023-03-12T04:58:19.697Z,1006.92
2023-03-12T04:59:19.682Z,1006.94
2023-03-12T05:00:19.676Z,1006.94
2023-03-12T05:01:19.666Z,1006.95
2023-03-12T05:02:19.679Z,1006.96
2023-03-12T05:03:19.641Z,1006.97
2023-03-12T05:04:19.631Z,1006.96
2023-03-12T05:05:19.629Z,1007.01
2023-03-12T05:06:19.610Z,1007.04
2023-03-12T05:07:19.636Z,1006.98
2023-03-12T05:08:19.613Z,1007.06
2023-03-12T05:09:19.584Z,1007.03
2023-03-12T05:10:19.576Z,1007.11
2023-03-12T05:11:19.568Z,1007.08
2023-03-12T05:12:19.574Z,1007.11
2023-03-12T05:13:19.544Z,1007.12
2023-03-12T05:14:19.536Z,1007.05
2023-03-12T05:15:19.530Z,1007.07
2023-03-12T05:16:19.601Z,1007.07
2023-03-12T05:17:19.534Z,1007.06
2023-03-12T05:18:19.488Z,1007.05
2023-03-12T05:19:19.471Z,1007.04
2023-03-12T05:20:19.459Z,1007.13
2023-03-12T05:21:19.457Z,1007.11
2023-03-12T05:22:19.464Z,1007.09
2023-03-12T05:23:19.428Z,1007.13
2023-03-12T05:24:19.438Z,1007.10
2023-03-12T05:25:19.405Z,1007.12
2023-03-12T05:26:19.399Z,1007.14
2023-03-12T05:27:19.413Z,1007.15
2023-03-12T05:28:19.392Z,1007.14
2023-03-12T05:29:19.364Z,1007.16
2023-03-12T05:30:19.360Z,1007.10
2023-03-12T05:31:19.437Z,1007.11
2023-03-12T05:32:19.371Z,1007.13
2023-03-12T05:33:19.323Z,1007.15
2023-03-12T05:34:19.324Z,1007.19
2023-03-12T05:35:19.302Z,1007.13
2023-03-12T05:36:19.292Z,1007.16
2023-03-12T05:37:19.289Z,1007.17
2023-03-12T05:38:19.274Z,1007.11
2023-03-12T05:39:19.260Z,1007.10
2023-03-12T05:40:19.273Z,1007.10
2023-03-12T05:41:19.243Z,1007.06
2023-03-12T05:42:19.242Z,1007.10
2023-03-12T05:43:19.217Z,1007.08
2023-03-12T05:44:19.222Z,1007.07
2023-03-12T05:45:19.199Z,1007.07
2023-03-12T05:46:19.190Z,1007.05
2023-03-12T05:47:19.202Z,1007.06
2023-03-12T05:48:19.170Z,1007.08
2023-03-12T05:49:19.153Z,1007.11
2023-03-12T05:50:19.142Z,1007.08
2023-03-12T05:51:19.134Z,1007.11
2023-03-12T05:52:19.142Z,1007.12
2023-03-12T05:53:19.113Z,1007.10
2023-03-12T05:54:19.099Z,1007.12
2023-03-12T05:55:19.089Z,1007.16
2023-03-12T05:56:19.092Z,1007.10
2023-03-12T05:57:19.102Z,1007.10
2023-03-12T05:58:19.056Z,1007.14
2023-03-12T05:59:19.047Z,1007.10
2023-03-12T06:00:19.031Z,1007.17
2023-03-12T06:01:19.022Z,1007.22
2023-03-12T06:02:19.073Z,1007.19
2023-03-12T06:03:19.013Z,1007.16
2023-03-12T06:04:18.999Z,1007.16
2023-03-12T06:05:18.979Z,1007.15
2023-03-12T06:06:18.972Z,1007.19
2023-03-12T06:07:19.002Z,1007.17
2023-03-12T06:08:18.946Z,1007.22
2023-03-12T06:09:18.939Z,1007.19
2023-03-12T06:10:18.921Z,1007.22
2023-03-12T06:11:18.911Z,1007.17
2023-03-12T06:12:18.932Z,1007.19
2023-03-12T06:13:18.893Z,1007.16
2023-03-12T06:14:18.884Z,1007.15
2023-03-12T06:15:18.890Z,1007.18
2023-03-12T06:16:18.909Z,1007.22
2023-03-12T06:17:18.874Z,1007.23
2023-03-12T06:18:18.834Z,1007.23
2023-03-12T06:19:18.834Z,1007.22
2023-03-12T06:20:18.812Z,1007.21
2023-03-12T06:21:18.809Z,1007.21
2023-03-12T06:22:18.807Z,1007.23
2023-03-12T06:23:21.481Z,1007.24
2023-03-12T06:24:18.768Z,1007.22
2023-03-12T06:25:18.762Z,1007.20
2023-03-12T06:26:18.748Z,1007.25
2023-03-12T06:27:18.830Z,1007.25
2023-03-12T06:28:18.747Z,1007.24
2023-03-12T06:29:18.735Z,1007.22
2023-03-12T06:30:18.707Z,1007.21
2023-03-12T06:31:18.761Z,1007.21
2023-03-12T06:32:18.748Z,1007.22
2023-03-12T06:33:18.675Z,1007.24
2023-03-12T06:34:18.685Z,1007.24
2023-03-12T06:35:18.651Z,1007.27
2023-03-12T06:36:18.638Z,1007.25
2023-03-12T06:37:18.665Z,1007.28
2023-03-12T06:38:18.616Z,1007.25
2023-03-12T06:39:18.609Z,1007.23
2023-03-12T06:40:18.594Z,1007.24
2023-03-12T06:41:18.589Z,1007.27
2023-03-12T06:42:18.605Z,1007.27
2023-03-12T06:43:18.563Z,1007.35
2023-03-12T06:44:18.594Z,1007.33
2023-03-12T06:45:18.538Z,1007.35
2023-03-12T06:46:18.625Z,1007.37
2023-03-12T06:47:18.546Z,1007.34
2023-03-12T06:48:18.506Z,1007.28
2023-03-12T06:49:18.494Z,1007.35
2023-03-12T06:50:18.485Z,1007.39
2023-03-12T06:51:18.488Z,1007.37
2023-03-12T06:52:18.474Z,1007.33
2023-03-12T06:53:18.457Z,1007.34
2023-03-12T06:54:18.449Z,1007.34
2023-03-12T06:55:18.430Z,1007.36
2023-03-12T06:56:18.417Z,1007.44
2023-03-12T06:57:18.453Z,1007.36
2023-03-12T06:58:18.394Z,1007.37
2023-03-12T06:59:18.409Z,1007.36
2023-03-12T07:00:18.399Z,1007.36
2023-03-12T07:01:18.363Z,1007.35
2023-03-12T07:02:18.439Z,1007.34
2023-03-12T07:03:18.343Z,1007.36
2023-03-12T07:04:18.337Z,1007.29
2023-03-12T07:05:18.374Z,1007.36
2023-03-12T07:06:18.314Z,1007.39
2023-03-12T07:07:18.324Z,1007.41
2023-03-12T07:08:18.288Z,1007.36
2023-03-12T07:09:18.288Z,1007.41
2023-03-12T07:10:18.276Z,1007.42
2023-03-12T07:11:18.261Z,1007.34
2023-03-12T07:12:18.267Z,1007.35
2023-03-12T07:13:18.235Z,1007.36
2023-03-12T07:14:18.225Z,1007.32
2023-03-12T07:15:18.221Z,1007.28
2023-03-12T07:16:18.279Z,1007.31
2023-03-12T07:17:18.257Z,1007.33
2023-03-12T07:18:18.183Z,1007.35
2023-03-12T07:19:18.186Z,1007.37
2023-03-12T07:20:18.165Z,1007.40
2023-03-12T07:21:18.155Z,1007.43
2023-03-12T07:22:18.158Z,1007.41
2023-03-12T07:23:18.131Z,1007.46
2023-03-12T07:24:18.120Z,1007.44
2023-03-12T07:25:19.108Z,1007.40
2023-03-12T07:26:18.102Z,1007.40
2023-03-12T07:27:18.102Z,1007.40
2023-03-12T07:28:18.077Z,1007.40
2023-03-12T07:29:18.065Z,1007.44
2023-03-12T07:30:18.060Z,1007.43
2023-03-12T07:31:18.055Z,1007.44
2023-03-12T07:32:18.107Z,1007.49
2023-03-12T07:33:18.136Z,1007.41
2023-03-12T07:34:18.164Z,1007.43
2023-03-12T07:35:18.066Z,1007.39
2023-03-12T07:36:18.203Z,1007.41
2023-03-12T07:37:17.995Z,1007.51
2023-03-12T07:38:18.081Z,1007.53
2023-03-12T07:39:17.961Z,1007.56
2023-03-12T07:40:17.955Z,1007.63
2023-03-12T07:41:17.991Z,1007.56
2023-03-12T07:42:17.979Z,1007.60
2023-03-12T07:43:20.358Z,1007.57
2023-03-12T07:44:17.910Z,1007.58
2023-03-12T07:45:17.914Z,1007.62
2023-03-12T07:46:18.009Z,1007.56
2023-03-12T07:47:24.216Z,1007.63
2023-03-12T07:48:18.926Z,1007.66
2023-03-12T07:49:17.856Z,1007.59
2023-03-12T07:50:17.937Z,1007.58
2023-03-12T07:51:17.823Z,1007.63
2023-03-12T07:52:17.890Z,1007.60
2023-03-12T07:53:17.820Z,1007.59
2023-03-12T07:54:17.787Z,1007.63
2023-03-12T07:55:17.867Z,1007.64
2023-03-12T07:56:17.986Z,1007.60
2023-03-12T07:57:17.922Z,1007.59
2023-03-12T07:58:17.938Z,1007.52
2023-03-12T07:59:17.818Z,1007.56
2023-03-12T08:00:17.762Z,1007.69
2023-03-12T08:01:17.816Z,1007.62
2023-03-12T08:02:17.828Z,1007.62
2023-03-12T08:03:17.915Z,1007.63
2023-03-12T08:04:17.852Z,1007.66
2023-03-12T08:05:17.670Z,1007.62
2023-03-12T08:06:17.764Z,1007.66
2023-03-12T08:07:17.697Z,1007.66
2023-03-12T08:08:17.657Z,1007.65
2023-03-12T08:09:17.622Z,1007.65
2023-03-12T08:10:17.664Z,1007.66
2023-03-12T08:11:17.599Z,1007.64
2023-03-12T08:12:17.682Z,1007.68
2023-03-12T08:13:17.621Z,1007.69
2023-03-12T08:14:17.596Z,1007.69
2023-03-12T08:15:17.566Z,1007.70
2023-03-12T08:16:17.565Z,1007.70
2023-03-12T08:17:17.548Z,1007.73
2023-03-12T08:18:17.552Z,1007.75
2023-03-12T08:19:17.512Z,1007.69
2023-03-12T08:20:17.552Z,1007.70
2023-03-12T08:21:17.495Z,1007.68
2023-03-12T08:22:17.505Z,1007.70
2023-03-12T08:23:17.484Z,1007.69
2023-03-12T08:24:17.458Z,1007.72
2023-03-12T08:25:17.455Z,1007.77
2023-03-12T08:26:17.438Z,1007.71
2023-03-12T08:27:17.427Z,1007.77
2023-03-12T08:28:17.440Z,1007.77
2023-03-12T08:29:17.402Z,1007.71
2023-03-12T08:30:17.405Z,1007.73
2023-03-12T08:31:17.419Z,1007.73
2023-03-12T08:32:17.507Z,1007.75
2023-03-12T08:33:17.432Z,1007.74
2023-03-12T08:34:17.347Z,1007.73
2023-03-12T08:35:17.340Z,1007.76
2023-03-12T08:36:17.348Z,1007.75
2023-03-12T08:37:17.315Z,1007.79
2023-03-12T08:38:17.329Z,1007.80
2023-03-12T08:39:17.310Z,1007.81
2023-03-12T08:40:17.326Z,1007.79
2023-03-12T08:41:17.283Z,1007.74
2023-03-12T08:42:17.260Z,1007.76
2023-03-12T08:43:17.275Z,1007.75
2023-03-12T08:44:17.252Z,1007.72
2023-03-12T08:45:17.238Z,1007.69
2023-03-12T08:46:17.290Z,1007.70
2023-03-12T08:47:17.233Z,1007.69
2023-03-12T08:48:17.244Z,1007.68
2023-03-12T08:49:17.194Z,1007.68
2023-03-12T08:50:17.180Z,1007.67
2023-03-12T08:51:17.212Z,1007.65
2023-03-12T08:52:17.198Z,1007.66
2023-03-12T08:53:17.174Z,1007.63
2023-03-12T08:54:17.138Z,1007.67
2023-03-12T08:55:17.123Z,1007.63
2023-03-12T08:56:17.113Z,1007.58
2023-03-12T08:57:17.107Z,1007.56
2023-03-12T08:58:17.116Z,1007.53
2023-03-12T08:59:17.082Z,1007.60
2023-03-12T09:00:17.069Z,1007.57
2023-03-12T09:01:17.077Z,1007.60
2023-03-12T09:02:17.070Z,1007.61
2023-03-12T09:03:17.082Z,1007.61
2023-03-12T09:04:17.074Z,1007.62
2023-03-12T09:05:17.014Z,1007.62
2023-03-12T09:06:17.131Z,1007.67
2023-03-12T09:07:17.019Z,1007.67
2023-03-12T09:08:17.018Z,1007.63
2023-03-12T09:09:16.971Z,1007.61
2023-03-12T09:10:16.967Z,1007.60
2023-03-12T09:11:16.951Z,1007.68
2023-03-12T09:12:16.951Z,1007.67
2023-03-12T09:13:16.943Z,1007.67
2023-03-12T09:15:17.910Z,1007.56
2023-03-12T09:16:16.930Z,1007.68
2023-03-12T09:17:16.944Z,1007.58
2023-03-12T09:18:16.944Z,1007.59
2023-03-12T09:19:16.913Z,1007.53
2023-03-12T09:20:16.858Z,1007.60
2023-03-12T09:21:16.852Z,1007.56
2023-03-12T09:22:16.838Z,1007.51
2023-03-12T09:23:16.829Z,1007.54
2023-03-12T09:24:16.840Z,1007.56
2023-03-12T09:25:16.805Z,1007.60
2023-03-12T09:26:16.789Z,1007.54
2023-03-12T09:27:16.773Z,1007.60
2023-03-12T09:28:16.785Z,1007.60
2023-03-12T09:29:16.752Z,1007.57
2023-03-12T09:30:16.741Z,1007.55
2023-03-12T09:31:16.814Z,1007.54
2023-03-12T09:32:16.815Z,1007.52
2023-03-12T09:33:16.743Z,1007.53
2023-03-12T09:34:16.693Z,1007.51
2023-03-12T09:35:16.684Z,1007.45
2023-03-12T09:36:16.670Z,1007.46
2023-03-12T09:37:16.713Z,1007.44
2023-03-12T09:38:16.688Z,1007.46
2023-03-12T09:39:16.645Z,1007.47
2023-03-12T09:40:16.648Z,1007.42
2023-03-12T09:41:16.620Z,1007.47
2023-03-12T09:42:16.603Z,1007.48
2023-03-12T09:43:16.614Z,1007.48
2023-03-12T09:44:16.582Z,1007.48
2023-03-12T09:45:16.571Z,1007.50
2023-03-12T09:46:16.586Z,1007.53
2023-03-12T09:47:16.567Z,1007.50
2023-03-12T09:48:16.539Z,1007.51
2023-03-12T09:49:16.527Z,1007.49
2023-03-12T09:50:16.515Z,1007.54
2023-03-12T09:51:16.504Z,1007.55
2023-03-12T09:52:16.505Z,1007.61
2023-03-12T09:53:16.490Z,1007.61
2023-03-12T09:54:16.486Z,1007.57
2023-03-12T09:55:16.474Z,1007.61
2023-03-12T09:56:16.475Z,1007.61
2023-03-12T09:57:16.458Z,1007.60
2023-03-12T09:58:16.432Z,1007.59
2023-03-12T09:59:16.419Z,1007.55
2023-03-12T10:00:16.410Z,1007.57
2023-03-12T10:01:16.407Z,1007.53
2023-03-12T10:02:16.416Z,1007.48
2023-03-12T10:03:16.382Z,1007.38
2023-03-12T10:04:16.462Z,1007.44
2023-03-12T10:05:16.440Z,1007.43
2023-03-12T10:06:16.422Z,1007.39
2023-03-12T10:07:16.348Z,1007.36
2023-03-12T10:08:23.937Z,1007.35
2023-03-12T10:09:17.314Z,1007.33
2023-03-12T10:10:16.305Z,1007.35
2023-03-12T10:11:16.291Z,1007.29
2023-03-12T10:12:16.304Z,1007.36
2023-03-12T10:13:16.282Z,1007.38
2023-03-12T10:14:23.938Z,1007.40
2023-03-12T10:15:17.247Z,1007.35
2023-03-12T10:16:16.394Z,1007.30
2023-03-12T10:17:16.228Z,1007.31
2023-03-12T10:18:16.458Z,1007.28
2023-03-12T10:19:16.206Z,1007.31
2023-03-12T10:20:16.202Z,1007.35
2023-03-12T10:21:16.206Z,1007.36
2023-03-12T10:22:16.176Z,1007.28
2023-03-12T10:23:16.202Z,1007.27
2023-03-12T10:24:16.150Z,1007.25
2023-03-12T10:25:16.141Z,1007.24
2023-03-12T10:26:16.132Z,1007.27
2023-03-12T10:27:16.120Z,1007.19
2023-03-12T10:28:16.139Z,1007.20
2023-03-12T10:29:16.098Z,1007.15
2023-03-12T10:30:16.089Z,1007.18
2023-03-12T10:31:16.129Z,1007.10
2023-03-12T10:32:16.096Z,1007.05
2023-03-12T10:33:16.105Z,1006.95
2023-03-12T10:34:16.051Z,1007.01
2023-03-12T10:35:16.070Z,1007.05
2023-03-12T10:36:16.031Z,1006.98
2023-03-12T10:37:16.009Z,1007.04
2023-03-12T10:38:16.015Z,1007.04
2023-03-12T10:39:16.025Z,1006.96
2023-03-12T10:40:15.984Z,1006.97
2023-03-12T10:41:15.965Z,1007.00
2023-03-12T10:42:15.952Z,1006.94
2023-03-12T10:43:15.975Z,1007.03
2023-03-12T10:44:15.974Z,1007.07
2023-03-12T10:45:15.920Z,1007.01
2023-03-12T10:46:15.928Z,1007.04
2023-03-12T10:47:15.901Z,1007.02
2023-03-12T10:48:15.915Z,1007.06
2023-03-12T10:49:15.879Z,1007.05
2023-03-12T10:50:15.870Z,1006.97
2023-03-12T10:51:15.850Z,1006.96
2023-03-12T10:52:15.847Z,1006.90
2023-03-12T10:53:15.851Z,1006.87
2023-03-12T10:54:15.820Z,1006.84
2023-03-12T10:55:15.808Z,1006.86
2023-03-12T10:56:15.803Z,1006.81
2023-03-12T10:57:15.808Z,1006.83
2023-03-12T10:58:15.782Z,1006.85
2023-03-12T10:59:15.763Z,1006.84
2023-03-12T11:00:15.780Z,1006.81
2023-03-12T11:01:15.782Z,1006.85
2023-03-12T11:02:15.761Z,1006.80
2023-03-12T11:03:15.762Z,1006.83
2023-03-12T11:04:15.712Z,1006.78
2023-03-12T11:05:15.702Z,1006.78
2023-03-12T11:06:15.875Z,1006.76
2023-03-12T11:07:15.680Z,1006.80
2023-03-12T11:08:15.691Z,1006.76
2023-03-12T11:09:17.352Z,1006.77
2023-03-12T11:10:15.646Z,1006.77
2023-03-12T11:11:15.637Z,1006.72
2023-03-12T11:12:15.660Z,1006.70
2023-03-12T11:13:15.626Z,1006.72
2023-03-12T11:14:15.633Z,1006.77
2023-03-12T11:15:15.591Z,1006.67
2023-03-12T11:16:15.631Z,1006.69
2023-03-12T11:17:15.568Z,1006.67
2023-03-12T11:18:15.578Z,1006.67
2023-03-12T11:19:15.547Z,1006.71
2023-03-12T11:20:15.536Z,1006.70
2023-03-12T11:21:15.523Z,1006.62
2023-03-12T11:22:15.544Z,1006.66
2023-03-12T11:23:15.499Z,1006.64
2023-03-12T11:24:15.493Z,1006.56
2023-03-12T11:25:15.480Z,1006.56
2023-03-12T11:26:15.513Z,1006.58
2023-03-12T11:27:15.503Z,1006.58
2023-03-12T11:28:15.473Z,1006.60
2023-03-12T11:29:15.518Z,1006.56
2023-03-12T11:30:15.506Z,1006.53
2023-03-12T11:31:15.551Z,1006.54
2023-03-12T11:32:15.544Z,1006.56
2023-03-12T11:33:15.405Z,1006.57
2023-03-12T11:34:15.382Z,1006.54
2023-03-12T11:35:15.382Z,1006.55
2023-03-12T11:36:15.361Z,1006.56
2023-03-12T11:37:15.365Z,1006.55
2023-03-12T11:38:15.338Z,1006.50
2023-03-12T11:39:15.327Z,1006.46
2023-03-12T11:40:15.317Z,1006.44
2023-03-12T11:41:15.303Z,1006.46
2023-03-12T11:42:15.353Z,1006.43
2023-03-12T11:43:15.284Z,1006.44
2023-03-12T11:44:15.293Z,1006.46
2023-03-12T11:45:15.279Z,1006.45
2023-03-12T11:46:15.287Z,1006.40
2023-03-12T11:47:15.291Z,1006.37
2023-03-12T11:48:15.290Z,1006.38
2023-03-12T11:49:15.233Z,1006.38
2023-03-12T11:50:15.233Z,1006.40
2023-03-12T11:51:15.200Z,1006.37
2023-03-12T11:52:15.189Z,1006.33
2023-03-12T11:53:15.178Z,1006.28
2023-03-12T11:54:15.191Z,1006.25
2023-03-12T11:55:16.568Z,1006.23
2023-03-12T11:56:15.151Z,1006.28
2023-03-12T11:57:15.134Z,1006.30
2023-03-12T11:58:15.125Z,1006.31
2023-03-12T11:59:15.135Z,1006.31
2023-03-12T12:00:15.099Z,1006.34
2023-03-12T12:01:15.089Z,1006.32
2023-03-12T12:02:15.113Z,1006.36
2023-03-12T12:03:15.105Z,1006.33
2023-03-12T12:04:15.091Z,1006.27
2023-03-12T12:05:15.047Z,1006.27
2023-03-12T12:06:15.033Z,1006.22